首页
METAR-TAF:

METAR-TAF

机场 :

倫敦城市機場

伦敦, 英格兰

纬度: 51-30N, 经度: 000-03E, 海拔: 5米

当前天气观测

该预报发布于41分钟前的10:20 UTC
风速11节,风向东北,在之间变化
温度 5°C
湿度 52%
气压 1032 hPa
能见度10公里或以上
阴天层高于4300英尺

METAR: EGLC 051020Z AUTO 05011KT 350V100 9999 OVC043 05/M04 Q1032

时间: 11:01 (11:01 UTC)

预报

该预报发布于3小时和4分钟前的07:57 UTC
预报有效从05日的 09点(UTC)到 05日的 18点(UTC)
风速8节,风向北转东北
能见度10公里或以上
散云层高于3500英尺

TAF: EGLC 050757Z 0509/0518 02008KT 9999 SCT035

超过4000个机场的气象观测和天气预报(METAR&TAF报告)。

可查询的气象台以黄色和红色小点在地图上表示。

将鼠标移到小点上方,可查看气象台名称。

然后点击查看天气观测和预报。

如需切换地图:点击带黑十字的绿色按钮放大地图;点击带横线的绿色按钮缩小地图;或者点击绿色箭头查看邻近地区的地图。


METAR-TAF: